createdAt,value
2023-02-01T00:00:58.308Z,8.69
2023-02-01T00:03:25.376Z,8.69
2023-02-01T00:05:55.294Z,8.68
2023-02-01T00:08:22.140Z,8.62
2023-02-01T00:10:48.988Z,8.62
2023-02-01T00:13:15.866Z,8.60
2023-02-01T00:15:42.974Z,8.62
2023-02-01T00:18:10.199Z,8.63
2023-02-01T00:20:37.104Z,8.66
2023-02-01T00:23:04.026Z,8.68
2023-02-01T00:25:31.003Z,8.69
2023-02-01T00:28:00.103Z,8.69
2023-02-01T00:30:26.975Z,8.65
2023-02-01T00:32:53.844Z,8.64
2023-02-01T00:35:20.727Z,8.62
2023-02-01T00:37:47.606Z,8.57
2023-02-01T00:40:14.543Z,8.56
2023-02-01T00:42:41.380Z,8.56
2023-02-01T00:45:08.876Z,8.56
2023-02-01T00:47:35.749Z,8.58
2023-02-01T00:50:02.643Z,8.55
2023-02-01T00:52:29.567Z,8.55
2023-02-01T00:54:56.414Z,8.56
2023-02-01T00:57:23.318Z,8.54
2023-02-01T00:59:50.214Z,8.52
2023-02-01T01:02:17.117Z,8.52
2023-02-01T01:04:44.022Z,8.54
2023-02-01T01:07:11.012Z,8.57
2023-02-01T01:09:37.965Z,8.56
2023-02-01T01:12:04.867Z,8.57
2023-02-01T01:14:31.923Z,8.55
2023-02-01T01:16:58.936Z,8.54
2023-02-01T01:19:25.813Z,8.49
2023-02-01T01:21:52.757Z,8.46
2023-02-01T01:24:19.675Z,8.46
2023-02-01T01:26:47.063Z,8.44
2023-02-01T01:29:14.133Z,8.46
2023-02-01T01:31:41.025Z,8.42
2023-02-01T01:34:07.948Z,8.38
2023-02-01T01:36:35.249Z,8.38
2023-02-01T01:39:03.566Z,8.41
2023-02-01T01:41:32.319Z,8.41
2023-02-01T01:44:00.162Z,8.43
2023-02-01T01:46:30.857Z,8.40
2023-02-01T01:48:58.155Z,8.39
2023-02-01T01:51:26.288Z,8.36
2023-02-01T01:53:57.129Z,8.36
2023-02-01T01:56:24.255Z,8.39
2023-02-01T01:58:51.522Z,8.38
2023-02-01T02:01:18.459Z,8.36
2023-02-01T02:03:46.955Z,8.33
2023-02-01T02:06:20.470Z,8.30
2023-02-01T02:08:48.306Z,8.24
2023-02-01T02:11:17.818Z,8.22
2023-02-01T02:13:47.835Z,8.18
2023-02-01T02:16:17.885Z,8.15
2023-02-01T02:18:53.686Z,8.16
2023-02-01T02:21:23.636Z,8.18
2023-02-01T02:23:54.166Z,8.16
2023-02-01T02:26:24.364Z,8.14
2023-02-01T02:29:04.150Z,8.13
2023-02-01T02:31:34.133Z,8.15
2023-02-01T02:34:04.231Z,8.18
2023-02-01T02:36:35.549Z,8.22
2023-02-01T02:39:03.944Z,8.23
2023-02-01T02:41:37.155Z,8.21
2023-02-01T02:44:13.260Z,8.22
2023-02-01T02:46:45.152Z,8.24
2023-02-01T02:49:15.352Z,8.29
2023-02-01T02:51:49.033Z,8.34
2023-02-01T02:54:22.076Z,8.39
2023-02-01T02:56:53.108Z,8.40
2023-02-01T02:59:25.931Z,8.37
2023-02-01T03:01:56.491Z,8.34
2023-02-01T03:04:24.923Z,8.31
2023-02-01T03:06:53.053Z,8.31
2023-02-01T03:09:24.152Z,8.25
2023-02-01T03:11:57.783Z,8.23
2023-02-01T03:14:27.868Z,8.25
2023-02-01T03:17:00.544Z,8.25
2023-02-01T03:19:31.201Z,8.24
2023-02-01T03:24:34.436Z,8.24
2023-02-01T03:27:06.406Z,8.25
2023-02-01T03:29:36.406Z,8.24
2023-02-01T03:32:03.384Z,8.22
2023-02-01T03:34:30.555Z,8.22
2023-02-01T03:37:01.130Z,8.22
2023-02-01T03:39:31.226Z,8.18
2023-02-01T03:42:00.559Z,8.20
2023-02-01T03:44:27.839Z,8.16
2023-02-01T03:46:55.048Z,8.15
2023-02-01T03:49:25.110Z,8.13
2023-02-01T03:51:52.811Z,8.11
2023-02-01T03:54:20.190Z,8.12
2023-02-01T03:56:50.216Z,8.15
2023-02-01T03:59:17.269Z,8.15
2023-02-01T04:01:44.506Z,8.15
2023-02-01T04:04:21.977Z,8.15
2023-02-01T04:06:50.943Z,8.16
2023-02-01T04:09:18.479Z,8.19
2023-02-01T04:11:45.418Z,8.18
2023-02-01T04:14:12.491Z,8.14
2023-02-01T04:16:40.258Z,8.10
2023-02-01T04:19:07.441Z,8.05
2023-02-01T04:21:34.455Z,8.04
2023-02-01T04:24:01.640Z,8.04
2023-02-01T04:26:28.731Z,8.02
2023-02-01T04:28:55.751Z,8.00
2023-02-01T04:31:25.942Z,8.01
2023-02-01T04:33:54.667Z,7.99
2023-02-01T04:36:23.327Z,7.98
2023-02-01T04:38:51.055Z,7.96
2023-02-01T04:41:21.439Z,7.92
2023-02-01T04:43:48.495Z,7.90
2023-02-01T04:46:15.786Z,7.90
2023-02-01T04:48:43.089Z,7.91
2023-02-01T04:51:11.311Z,7.92
2023-02-01T04:53:38.591Z,7.92
2023-02-01T04:56:05.758Z,7.91
2023-02-01T04:58:32.647Z,7.85
2023-02-01T05:00:59.671Z,7.86
2023-02-01T05:03:26.645Z,7.84
2023-02-01T05:05:54.914Z,7.87
2023-02-01T05:08:24.017Z,7.88
2023-02-01T05:10:50.972Z,7.88
2023-02-01T05:13:21.226Z,7.87
2023-02-01T05:15:48.395Z,7.83
2023-02-01T05:18:15.230Z,7.82
2023-02-01T05:20:42.176Z,7.82
2023-02-01T05:23:09.147Z,7.85
2023-02-01T05:25:36.241Z,7.87
2023-02-01T05:28:03.363Z,7.86
2023-02-01T05:30:30.686Z,7.86
2023-02-01T05:32:57.955Z,7.86
2023-02-01T05:35:25.083Z,7.83
2023-02-01T05:37:52.665Z,7.83
2023-02-01T05:40:19.821Z,7.82
2023-02-01T05:42:46.972Z,7.84
2023-02-01T05:45:13.929Z,7.83
2023-02-01T05:47:40.910Z,7.84
2023-02-01T05:50:08.392Z,7.84
2023-02-01T05:52:35.849Z,7.85
2023-02-01T05:55:02.856Z,7.85
2023-02-01T05:57:29.973Z,7.86
2023-02-01T05:59:57.590Z,7.91
2023-02-01T06:02:25.657Z,7.95
2023-02-01T06:04:52.745Z,7.98
2023-02-01T06:07:19.683Z,8.00
2023-02-01T06:09:46.688Z,7.97
2023-02-01T06:12:13.571Z,7.99
2023-02-01T06:14:40.689Z,7.99
2023-02-01T06:17:08.205Z,7.99
2023-02-01T06:19:35.373Z,8.02
2023-02-01T06:22:02.507Z,8.03
2023-02-01T06:24:29.755Z,8.02
2023-02-01T06:26:56.706Z,8.01
2023-02-01T06:29:24.987Z,8.02
2023-02-01T06:31:52.181Z,8.01
2023-02-01T06:34:22.091Z,8.02
2023-02-01T06:36:49.576Z,8.06
2023-02-01T06:39:17.483Z,8.09
2023-02-01T06:41:47.738Z,8.13
2023-02-01T06:44:15.127Z,8.16
2023-02-01T06:46:43.168Z,8.17
2023-02-01T06:49:10.672Z,8.19
2023-02-01T06:51:38.165Z,8.22
2023-02-01T06:54:05.282Z,8.24
2023-02-01T06:56:34.679Z,8.24
2023-02-01T06:59:05.121Z,8.26
2023-02-01T07:01:40.664Z,8.25
2023-02-01T07:04:19.749Z,8.25
2023-02-01T07:06:46.868Z,8.27
2023-02-01T07:09:26.210Z,8.29
2023-02-01T07:12:00.122Z,8.33
2023-02-01T07:14:28.153Z,8.34
2023-02-01T07:16:55.702Z,8.35
2023-02-01T07:19:40.331Z,8.36
2023-02-01T07:22:13.502Z,8.39
2023-02-01T07:24:40.567Z,8.41
2023-02-01T07:27:08.820Z,8.42
2023-02-01T07:29:41.706Z,8.41
2023-02-01T07:32:30.778Z,8.43
2023-02-01T07:34:58.561Z,8.46
2023-02-01T07:37:26.013Z,8.47
2023-02-01T07:39:53.006Z,8.48
2023-02-01T07:42:20.155Z,8.50
2023-02-01T07:44:51.815Z,8.51
2023-02-01T07:47:18.823Z,8.51
2023-02-01T07:49:45.711Z,8.49
2023-02-01T07:52:14.407Z,8.51
2023-02-01T07:54:41.326Z,8.57
2023-02-01T07:57:10.037Z,8.59
2023-02-01T07:59:56.913Z,8.67
2023-02-01T08:02:23.973Z,8.79
2023-02-01T08:04:50.884Z,8.80
2023-02-01T08:07:17.871Z,8.81
2023-02-01T08:09:44.722Z,8.80
2023-02-01T08:12:11.655Z,8.80
2023-02-01T08:14:38.661Z,8.80
2023-02-01T08:17:05.550Z,8.82
2023-02-01T08:19:32.690Z,8.82
2023-02-01T08:22:00.690Z,8.80
2023-02-01T08:24:27.827Z,8.82
2023-02-01T08:26:54.867Z,8.86
2023-02-01T08:29:21.924Z,8.86
2023-02-01T08:31:48.913Z,8.89
2023-02-01T08:34:15.980Z,8.94
2023-02-01T08:36:43.071Z,8.97
2023-02-01T08:39:11.496Z,9.02
2023-02-01T08:41:39.065Z,9.01
2023-02-01T08:44:06.309Z,8.96
2023-02-01T08:46:33.206Z,8.94
2023-02-01T08:49:00.337Z,8.93
2023-02-01T08:51:27.375Z,8.92
2023-02-01T08:53:54.299Z,8.95
2023-02-01T08:56:21.557Z,8.97
2023-02-01T08:58:48.524Z,9.03
2023-02-01T09:01:18.390Z,9.06
2023-02-01T09:03:46.063Z,9.08
2023-02-01T09:06:13.801Z,9.09
2023-02-01T09:08:41.151Z,9.08
2023-02-01T09:11:09.381Z,9.12
2023-02-01T09:13:36.793Z,9.18
2023-02-01T09:16:04.629Z,9.21
2023-02-01T09:18:31.576Z,9.23
2023-02-01T09:20:58.569Z,9.25
2023-02-01T09:23:25.585Z,9.29
2023-02-01T09:25:52.745Z,9.34
2023-02-01T09:28:20.408Z,9.36
2023-02-01T09:30:47.736Z,9.40
2023-02-01T09:33:14.889Z,9.42
2023-02-01T09:35:42.024Z,9.44
2023-02-01T09:38:09.174Z,9.45
2023-02-01T09:40:36.883Z,9.43
2023-02-01T09:43:09.708Z,9.43
2023-02-01T09:45:37.975Z,9.46
2023-02-01T09:48:11.744Z,9.46
2023-02-01T09:50:40.483Z,9.49
2023-02-01T09:53:14.076Z,9.52
2023-02-01T09:55:44.139Z,9.56
2023-02-01T09:58:14.102Z,9.63
2023-02-01T10:00:42.709Z,9.69
2023-02-01T10:03:13.642Z,9.73
2023-02-01T10:05:46.127Z,9.75
2023-02-01T10:08:16.045Z,9.81
2023-02-01T10:10:46.224Z,9.86
2023-02-01T10:13:16.459Z,9.93
2023-02-01T10:15:54.337Z,9.95
2023-02-01T10:18:22.641Z,9.97
2023-02-01T10:20:52.762Z,10.01
2023-02-01T10:23:33.443Z,10.06
2023-02-01T10:26:04.666Z,10.12
2023-02-01T10:28:34.820Z,10.18
2023-02-01T10:31:02.832Z,10.18
2023-02-01T10:33:33.010Z,10.19
2023-02-01T10:36:04.908Z,10.25
2023-02-01T10:38:33.507Z,10.29
2023-02-01T10:41:04.437Z,10.34
2023-02-01T10:43:32.235Z,10.38
2023-02-01T10:45:59.268Z,10.45
2023-02-01T10:48:26.679Z,10.50
2023-02-01T10:50:55.132Z,10.54
2023-02-01T10:53:25.156Z,10.57
2023-02-01T10:55:54.012Z,10.61
2023-02-01T10:58:21.399Z,10.63
2023-02-01T11:00:55.062Z,10.61
2023-02-01T11:03:31.951Z,10.61
2023-02-01T11:05:58.947Z,10.62
2023-02-01T11:08:25.862Z,10.62
2023-02-01T11:10:55.794Z,10.66
2023-02-01T11:13:29.457Z,10.73
2023-02-01T11:15:57.447Z,10.82
2023-02-01T11:18:28.171Z,10.90
2023-02-01T11:20:56.437Z,10.93
2023-02-01T11:23:24.888Z,11.00
2023-02-01T11:25:54.992Z,11.00
2023-02-01T11:28:23.838Z,11.02
2023-02-01T11:30:52.686Z,11.08
2023-02-01T11:33:21.181Z,11.15
2023-02-01T11:35:49.430Z,11.21
2023-02-01T11:38:19.434Z,11.27
2023-02-01T11:40:46.350Z,11.29
2023-02-01T11:43:14.646Z,11.28
2023-02-01T11:45:41.744Z,11.32
2023-02-01T11:48:15.055Z,11.38
2023-02-01T11:50:48.229Z,11.42
2023-02-01T11:53:16.638Z,11.46
2023-02-01T11:55:44.944Z,11.48
2023-02-01T11:58:12.239Z,11.53
2023-02-01T12:00:42.535Z,11.59
2023-02-01T12:03:13.698Z,11.61
2023-02-01T12:05:48.463Z,11.65
2023-02-01T12:08:15.957Z,11.65
2023-02-01T12:10:52.650Z,11.66
2023-02-01T12:13:22.678Z,11.62
2023-02-01T12:15:52.663Z,11.64
2023-02-01T12:18:19.957Z,11.66
2023-02-01T12:20:50.124Z,11.68
2023-02-01T12:23:20.195Z,11.75
2023-02-01T12:25:50.509Z,11.79
2023-02-01T12:28:20.706Z,11.83
2023-02-01T12:30:50.808Z,11.87
2023-02-01T12:33:18.125Z,11.92
2023-02-01T12:35:48.403Z,11.94
2023-02-01T12:38:15.873Z,11.99
2023-02-01T12:40:45.966Z,11.97
2023-02-01T12:43:22.890Z,11.97
2023-02-01T12:45:54.406Z,12.02
2023-02-01T12:48:24.358Z,12.09
2023-02-01T12:50:54.363Z,12.12
2023-02-01T12:53:26.475Z,12.18
2023-02-01T12:55:55.616Z,12.24
2023-02-01T12:58:25.904Z,12.30
2023-02-01T13:00:55.852Z,12.37
2023-02-01T13:03:26.032Z,12.44
2023-02-01T13:05:56.292Z,12.49
2023-02-01T13:08:25.686Z,12.52
2023-02-01T13:10:57.582Z,12.56
2023-02-01T13:13:30.494Z,12.59
2023-02-01T13:16:00.402Z,12.63
2023-02-01T13:18:34.060Z,12.66
2023-02-01T13:21:05.843Z,12.70
2023-02-01T13:23:36.019Z,12.70
2023-02-01T13:26:03.296Z,12.72
2023-02-01T13:28:30.632Z,12.70
2023-02-01T13:31:00.992Z,12.71
2023-02-01T13:33:53.309Z,12.71
2023-02-01T13:36:19.566Z,12.73
2023-02-01T13:39:03.920Z,12.74
2023-02-01T13:41:34.035Z,12.76
2023-02-01T13:44:04.257Z,12.78
2023-02-01T13:46:32.842Z,12.80
2023-02-01T13:49:02.583Z,12.83
2023-02-01T13:51:32.629Z,12.83
2023-02-01T13:53:59.560Z,12.86
2023-02-01T13:56:27.477Z,12.91
2023-02-01T13:58:54.530Z,12.89
2023-02-01T14:01:22.970Z,12.89
2023-02-01T14:03:50.290Z,12.88
2023-02-01T14:06:18.916Z,12.89
2023-02-01T14:08:48.640Z,12.89
2023-02-01T14:11:33.552Z,12.91
2023-02-01T14:14:08.555Z,12.91
2023-02-01T14:16:35.708Z,12.91
2023-02-01T14:19:03.046Z,12.93
2023-02-01T14:21:32.411Z,12.90
2023-02-01T14:24:02.295Z,12.99
2023-02-01T14:26:43.198Z,12.99
2023-02-01T14:29:20.376Z,12.98
2023-02-01T14:31:51.168Z,12.94
2023-02-01T14:34:20.243Z,12.90
2023-02-01T14:36:50.558Z,12.86
2023-02-01T14:39:20.670Z,12.84
2023-02-01T14:41:48.460Z,12.80
2023-02-01T14:44:23.398Z,12.77
2023-02-01T14:46:53.401Z,12.76
2023-02-01T14:49:20.726Z,12.74
2023-02-01T14:51:48.245Z,12.73
2023-02-01T14:54:15.499Z,12.69
2023-02-01T14:56:42.762Z,12.67
2023-02-01T14:59:14.247Z,12.70
2023-02-01T15:01:48.612Z,12.67
2023-02-01T15:04:19.767Z,12.66
2023-02-01T15:06:48.137Z,12.68
2023-02-01T15:09:19.130Z,12.67
2023-02-01T15:11:49.299Z,12.69
2023-02-01T15:14:16.470Z,12.70
2023-02-01T15:16:44.086Z,12.70
2023-02-01T15:19:12.596Z,12.69
2023-02-01T15:21:42.844Z,12.68
2023-02-01T15:24:13.409Z,12.66
2023-02-01T15:26:40.983Z,12.63
2023-02-01T15:29:11.854Z,12.61
2023-02-01T15:31:40.556Z,12.62
2023-02-01T15:34:07.769Z,12.63
2023-02-01T15:36:35.195Z,12.60
2023-02-01T15:39:05.367Z,12.56
2023-02-01T15:41:32.760Z,12.55
2023-02-01T15:44:00.274Z,12.53
2023-02-01T15:46:30.669Z,12.56
2023-02-01T15:48:58.040Z,12.57
2023-02-01T15:51:26.685Z,12.52
2023-02-01T15:53:54.054Z,12.49
2023-02-01T15:56:24.082Z,12.49
2023-02-01T15:58:53.378Z,12.49
2023-02-01T16:01:21.163Z,12.47
2023-02-01T16:03:49.821Z,12.47
2023-02-01T16:06:19.777Z,12.45
2023-02-01T16:08:49.775Z,12.39
2023-02-01T16:11:24.076Z,12.39
2023-02-01T16:13:51.159Z,12.35
2023-02-01T16:16:18.799Z,12.35
2023-02-01T16:18:46.410Z,12.34
2023-02-01T16:21:13.524Z,12.34
2023-02-01T16:23:40.838Z,12.31
2023-02-01T16:26:08.210Z,12.28
2023-02-01T16:28:36.078Z,12.24
2023-02-01T16:31:03.689Z,12.22
2023-02-01T16:33:31.110Z,12.18
2023-02-01T16:36:01.808Z,12.15
2023-02-01T16:38:28.838Z,12.14
2023-02-01T16:40:56.122Z,12.13
2023-02-01T16:43:25.214Z,12.14
2023-02-01T16:45:54.535Z,12.13
2023-02-01T16:48:24.662Z,12.12
2023-02-01T16:50:54.144Z,12.14
2023-02-01T16:53:21.558Z,12.12
2023-02-01T16:55:49.162Z,12.11
2023-02-01T16:58:17.336Z,12.08
2023-02-01T17:00:45.098Z,12.04
2023-02-01T17:03:17.680Z,12.06
2023-02-01T17:05:47.523Z,12.04
2023-02-01T17:08:17.921Z,12.03
2023-02-01T17:10:44.945Z,12.02
2023-02-01T17:13:14.953Z,12.00
2023-02-01T17:15:44.338Z,11.96
2023-02-01T17:18:16.019Z,11.94
2023-02-01T17:20:43.441Z,11.92
2023-02-01T17:26:29.061Z,11.85
2023-02-01T17:28:55.803Z,11.85
2023-02-01T17:31:22.614Z,11.86
2023-02-01T17:33:51.502Z,11.84
2023-02-01T17:36:18.658Z,11.84
2023-02-01T17:38:50.932Z,11.83
2023-02-01T17:41:21.101Z,11.81
2023-02-01T17:43:54.683Z,11.79
2023-02-01T17:46:27.501Z,11.78
2023-02-01T17:48:55.260Z,11.77
2023-02-01T17:51:24.415Z,11.74
2023-02-01T17:53:51.536Z,11.74
2023-02-01T17:56:20.716Z,11.73
2023-02-01T17:58:48.163Z,11.72
2023-02-01T18:01:16.134Z,11.75
2023-02-01T18:03:43.588Z,11.74
2023-02-01T18:06:13.243Z,11.74
2023-02-01T18:08:40.439Z,11.72
2023-02-01T18:11:12.383Z,11.72
2023-02-01T18:13:39.307Z,11.69
2023-02-01T18:16:06.663Z,11.67
2023-02-01T18:18:34.402Z,11.66
2023-02-01T18:21:01.627Z,11.66
2023-02-01T18:23:28.802Z,11.68
2023-02-01T18:25:55.952Z,11.66
2023-02-01T18:28:22.999Z,11.64
2023-02-01T18:30:51.954Z,11.63
2023-02-01T18:33:20.578Z,11.65
2023-02-01T18:35:47.785Z,11.68
2023-02-01T18:38:15.009Z,11.68
2023-02-01T18:40:42.359Z,11.64
2023-02-01T18:43:11.077Z,11.62
2023-02-01T18:45:38.408Z,11.61
2023-02-01T18:48:06.375Z,11.58
2023-02-01T18:50:34.931Z,11.57
2023-02-01T18:53:02.953Z,11.55
2023-02-01T18:55:32.831Z,11.53
2023-02-01T18:58:03.252Z,11.51
2023-02-01T19:00:35.928Z,11.48
2023-02-01T19:03:02.816Z,11.45
2023-02-01T19:05:31.007Z,11.43
2023-02-01T19:07:57.951Z,11.44
2023-02-01T19:10:25.013Z,11.45
2023-02-01T19:12:53.181Z,11.45
2023-02-01T19:15:20.352Z,11.46
2023-02-01T19:17:48.265Z,11.45
2023-02-01T19:20:16.581Z,11.45
2023-02-01T19:22:43.659Z,11.42
2023-02-01T19:25:14.236Z,11.39
2023-02-01T19:27:41.219Z,11.33
2023-02-01T19:30:10.023Z,11.30
2023-02-01T19:32:38.845Z,11.30
2023-02-01T19:35:06.251Z,11.30
2023-02-01T19:37:33.332Z,11.27
2023-02-01T19:40:00.247Z,11.27
2023-02-01T19:42:27.737Z,11.28
2023-02-01T19:44:54.682Z,11.29
2023-02-01T19:47:21.673Z,11.30
2023-02-01T19:49:48.660Z,11.31
2023-02-01T19:52:15.694Z,11.32
2023-02-01T19:54:42.765Z,11.30
2023-02-01T19:57:09.682Z,11.27
2023-02-01T19:59:36.624Z,11.26
2023-02-01T20:02:03.268Z,11.26
2023-02-01T20:04:30.501Z,11.26
2023-02-01T20:06:57.724Z,11.25
2023-02-01T20:09:28.346Z,11.22
2023-02-01T20:11:55.634Z,11.20
2023-02-01T20:14:24.983Z,11.17
2023-02-01T20:16:52.391Z,11.16
2023-02-01T20:19:20.274Z,11.15
2023-02-01T20:21:47.572Z,11.15
2023-02-01T20:24:15.798Z,11.17
2023-02-01T20:26:43.751Z,11.14
2023-02-01T20:29:10.868Z,11.14
2023-02-01T20:31:38.031Z,11.14
2023-02-01T20:34:05.336Z,11.12
2023-02-01T20:36:34.104Z,11.14
2023-02-01T20:39:03.069Z,11.17
2023-02-01T20:41:31.243Z,11.21
2023-02-01T20:43:58.554Z,11.20
2023-02-01T20:46:26.236Z,11.22
2023-02-01T20:48:53.920Z,11.22
2023-02-01T20:51:22.752Z,11.24
2023-02-01T20:53:54.346Z,11.23
2023-02-01T20:56:22.389Z,11.22
2023-02-01T20:58:50.869Z,11.22
2023-02-01T21:01:18.202Z,11.24
2023-02-01T21:03:45.238Z,11.27
2023-02-01T21:06:13.372Z,11.28
2023-02-01T21:08:41.863Z,11.31
2023-02-01T21:11:10.503Z,11.30
2023-02-01T21:13:43.198Z,11.29
2023-02-01T21:16:11.745Z,11.28
2023-02-01T21:18:39.019Z,11.29
2023-02-01T21:21:08.781Z,11.30
2023-02-01T21:23:45.269Z,11.30
2023-02-01T21:26:13.487Z,11.29
2023-02-01T21:28:40.717Z,11.31
2023-02-01T21:31:07.833Z,11.34
2023-02-01T21:33:35.020Z,11.33
2023-02-01T21:36:03.724Z,11.32
2023-02-01T21:38:30.913Z,11.31
2023-02-01T21:41:01.100Z,11.29
2023-02-01T21:43:28.228Z,11.29
2023-02-01T21:45:55.378Z,11.30
2023-02-01T21:48:24.062Z,11.31
2023-02-01T21:50:51.422Z,11.33
2023-02-01T21:53:18.369Z,11.35
2023-02-01T21:55:45.330Z,11.34
2023-02-01T21:58:13.307Z,11.35
2023-02-01T22:00:40.456Z,11.35
2023-02-01T22:03:07.432Z,11.34
2023-02-01T22:05:34.832Z,11.34
2023-02-01T22:08:01.974Z,11.33
2023-02-01T22:10:29.049Z,11.33
2023-02-01T22:12:56.004Z,11.34
2023-02-01T22:15:23.114Z,11.37
2023-02-01T22:17:50.347Z,11.29
2023-02-01T22:20:17.521Z,11.24
2023-02-01T22:22:47.745Z,11.21
2023-02-01T22:25:14.864Z,11.21
2023-02-01T22:28:31.288Z,11.22
2023-02-01T22:30:29.035Z,11.21
2023-02-01T22:32:55.959Z,11.22
2023-02-01T22:35:23.311Z,11.22
2023-02-01T22:37:50.493Z,11.21
2023-02-01T22:40:17.574Z,11.19
2023-02-01T22:42:44.843Z,11.21
2023-02-01T22:45:11.722Z,11.21
2023-02-01T22:47:38.698Z,11.21
2023-02-01T22:50:06.004Z,11.21
2023-02-01T22:52:32.886Z,11.20
2023-02-01T22:54:59.791Z,11.18
2023-02-01T22:57:26.662Z,11.20
2023-02-01T22:59:53.661Z,11.18
2023-02-01T23:02:20.613Z,11.19
2023-02-01T23:04:47.631Z,11.22
2023-02-01T23:07:14.491Z,11.23
2023-02-01T23:09:41.351Z,11.23
2023-02-01T23:12:08.252Z,11.23
2023-02-01T23:14:58.662Z,11.25
2023-02-01T23:17:25.534Z,11.28
2023-02-01T23:19:52.402Z,11.29
2023-02-01T23:22:19.495Z,11.32
2023-02-01T23:24:46.360Z,11.33
2023-02-01T23:27:13.253Z,11.33
2023-02-01T23:29:40.151Z,11.31
2023-02-01T23:32:07.402Z,11.30
2023-02-01T23:34:34.528Z,11.30
2023-02-01T23:37:01.611Z,11.30
2023-02-01T23:39:28.693Z,11.28
2023-02-01T23:41:55.531Z,11.30
2023-02-01T23:44:22.525Z,11.32
2023-02-01T23:46:49.515Z,11.32
2023-02-01T23:49:17.030Z,11.33
2023-02-01T23:51:44.343Z,11.34
2023-02-01T23:54:11.896Z,11.34
2023-02-01T23:56:40.014Z,11.33
2023-02-01T23:59:08.067Z,11.35
